Aiken, SC (29803)

5:27 PM EST on February 10, 2016 (GMT -0500)
Woodwinds | | Change Station
CLOSE
Current Station
Personal Weather Station
Location: Aiken, SC
Elevation: 450 ft
Nearby Weather Stations
Active Advisory: Lake Wind Advisory

Elev 450 ft 33.53 °N, 81.73 °W | Updated 11 seconds ago

Clear
Clear
37.5 °F
Feels Like 38 °F
N
3.0
Wind Variable Wind from WNW
Gusts 8.0 mph

Today
High -- | Low -- °F
--% Chance of Precip.
Yesterday
High -- | Low -- °F
Precip. -- in
Pressure 30.09 in
Visibility 10.0 miles
Clouds Clear
Windchill 38 °F
Dew Point 12 °F
Humidity 34%
Rainfall 0.00 in
Snow Depth Not available.
7:16 AM 6:06 PM
Waxing Crescent, 7% visible
METAR KAIK 102215Z AUTO 25012G20KT 10SM CLR 02/M12 A3009 RMK AO2
Pressure 30.09 in
Visibility 10.0 miles
Clouds Clear
Windchill 38 °F
Dew Point 12 °F
Humidity 34%
Rainfall 0.00 in
Snow Depth Not available.
7:16 AM 6:06 PM
Waxing Crescent, 7% visible
METAR KAIK 102215Z AUTO 25012G20KT 10SM CLR 02/M12 A3009 RMK AO2

10-Day Weather Forecast

Almanac

Astronomy

Feb. 10, 2016 Rise Set
Actual Time
Civil Twilight
Nautical Twilight
Astronomical Twilight
Moon
Length of Visible Light
Length of Day
Tomorrow will be .
, % of the Moon is Illuminated

Today's Extremes

State Highs State Lows

Community

WunderPhotos

Upload Photos

1,891,952 photos uploaded!

WunderBlog® & News

Nearby

Air Quality

  Air Quality AQ Index Pollutant
Not available.

Snow Depth

Station Depth Elevation

Earthquake Activity

City Distance Mag. Time & Date
Minimum magnitude displayed is 2.5.

Coastal Water Temperatures

Place Temperature

Stations

Nearby Weather Stations

Station Location Temp. Windchill Dew Point Humidity Wind Precip. Elev Updated Type
                   

Watches & Warnings

Lake Wind Advisory
Issued: 3:47 AM EST Feb. 10, 2016 – National Weather Service

... Lake Wind Advisory remains in effect until 11 PM EST this
evening...

* timing... through this evening.

* Winds... west 20 to 30 knots.

* Impacts... strong winds and rough chop will create hazardous
conditions for small craft and personal watercraft.

Precautionary/preparedness actions...

A lake Wind Advisory indicates that winds will cause rough chop
on area lakes. Small boats will be especially prone to capsizing.